Terminal Aerodrome Forecast
Issued by NWS

Home | Current Version | Previous Version | Graphics & Text | Print | Product List | Glossary On
Versions: 1 2 3 4 5 6 7 8 9 10 11 12 13 14 15 16
000
FTUS43 KIWX 260200 AAA
TAFSBN
TAF AMD
KSBN 260252Z 2603/2624 03007KT 3SM -SN OVC025
      TEMPO 2605/2608 1 1/2SM -SN OVC015
     FM261000 05007KT 4SM -SN OVC020
     FM261400 02010KT P6SM BKN035=

USA.gov is the U.S. government's official web portal to all federal, state and local government web resources and services.